sensor_id;sensor_type;location;lat;lon;timestamp;pressure;altitude;pressure_sealevel;temperature;humidity
19759;BME280;10038;42.662;23.278;2022-07-01T00:00:16;73077.06;;;21.52;74.00
19759;BME280;10038;42.662;23.278;2022-07-01T00:02:43;73066.00;;;21.42;74.02
19759;BME280;10038;42.662;23.278;2022-07-01T00:05:10;73056.25;;;21.36;75.89
19759;BME280;10038;42.662;23.278;2022-07-01T00:07:37;73010.63;;;20.94;76.68
19759;BME280;10038;42.662;23.278;2022-07-01T00:10:05;73037.47;;;21.17;77.39
19759;BME280;10038;42.662;23.278;2022-07-01T00:12:33;73018.78;;;21.01;77.98
19759;BME280;10038;42.662;23.278;2022-07-01T00:15:00;73011.38;;;20.97;78.77
19759;BME280;10038;42.662;23.278;2022-07-01T00:17:26;73011.38;;;20.97;78.88
19759;BME280;10038;42.662;23.278;2022-07-01T00:19:53;73011.66;;;21.02;78.29
19759;BME280;10038;42.662;23.278;2022-07-01T00:22:20;73009.94;;;21.01;78.53
19759;BME280;10038;42.662;23.278;2022-07-01T00:24:47;73004.06;;;20.86;79.95
19759;BME280;10038;42.662;23.278;2022-07-01T00:27:14;72988.34;;;20.73;80.95
19759;BME280;10038;42.662;23.278;2022-07-01T00:29:42;72985.16;;;20.75;80.89
19759;BME280;10038;42.662;23.278;2022-07-01T00:32:09;72987.16;;;20.72;81.10
19759;BME280;10038;42.662;23.278;2022-07-01T00:34:36;72988.94;;;20.73;81.30
19759;BME280;10038;42.662;23.278;2022-07-01T00:37:03;72988.94;;;20.73;81.49
19759;BME280;10038;42.662;23.278;2022-07-01T00:39:30;72962.13;;;20.50;82.53
19759;BME280;10038;42.662;23.278;2022-07-01T00:41:59;72941.91;;;20.35;83.78
19759;BME280;10038;42.662;23.278;2022-07-01T00:44:27;72950.47;;;20.40;83.51
19759;BME280;10038;42.662;23.278;2022-07-01T00:46:56;72972.03;;;20.58;82.39
19759;BME280;10038;42.662;23.278;2022-07-01T00:49:24;72972.91;;;20.64;81.84
19759;BME280;10038;42.662;23.278;2022-07-01T00:51:52;72994.31;;;20.80;80.61
19759;BME280;10038;42.662;23.278;2022-07-01T00:54:20;72995.47;;;20.81;80.19
19759;BME280;10038;42.662;23.278;2022-07-01T00:56:48;72998.56;;;20.86;80.41
19759;BME280;10038;42.662;23.278;2022-07-01T00:59:14;72993.88;;;20.82;80.52
19759;BME280;10038;42.662;23.278;2022-07-01T01:01:41;72989.22;;;20.78;80.82
19759;BME280;10038;42.662;23.278;2022-07-01T01:04:10;72976.25;;;20.65;81.97
19759;BME280;10038;42.662;23.278;2022-07-01T01:06:37;72967.94;;;20.55;81.86
19759;BME280;10038;42.662;23.278;2022-07-01T01:09:03;72983.09;;;20.68;81.28
19759;BME280;10038;42.662;23.278;2022-07-01T01:11:30;72972.63;;;20.59;81.47
19759;BME280;10038;42.662;23.278;2022-07-01T01:13:57;72964.78;;;20.57;82.18
19759;BME280;10038;42.662;23.278;2022-07-01T01:16:25;72966.50;;;20.58;81.91
19759;BME280;10038;42.662;23.278;2022-07-01T01:18:52;72966.34;;;20.56;81.52
19759;BME280;10038;42.662;23.278;2022-07-01T01:21:20;72956.31;;;20.45;82.39
19759;BME280;10038;42.662;23.278;2022-07-01T01:23:47;72949.63;;;20.44;82.40
19759;BME280;10038;42.662;23.278;2022-07-01T01:26:15;72920.16;;;20.14;82.48
19759;BME280;10038;42.662;23.278;2022-07-01T01:28:42;72928.66;;;20.26;83.33
19759;BME280;10038;42.662;23.278;2022-07-01T01:31:09;72929.06;;;20.24;84.06
19759;BME280;10038;42.662;23.278;2022-07-01T01:33:37;72914.50;;;20.11;84.86
19759;BME280;10038;42.662;23.278;2022-07-01T01:36:04;72932.81;;;20.22;84.64
19759;BME280;10038;42.662;23.278;2022-07-01T01:38:34;72916.69;;;20.11;85.14
19759;BME280;10038;42.662;23.278;2022-07-01T01:41:02;72927.16;;;20.20;84.60
19759;BME280;10038;42.662;23.278;2022-07-01T01:43:29;72926.00;;;20.19;84.76
19759;BME280;10038;42.662;23.278;2022-07-01T01:45:56;72930.41;;;20.27;84.40
19759;BME280;10038;42.662;23.278;2022-07-01T01:48:25;72931.41;;;20.26;84.02
19759;BME280;10038;42.662;23.278;2022-07-01T01:50:52;72927.16;;;20.20;84.10
19759;BME280;10038;42.662;23.278;2022-07-01T01:53:19;72918.75;;;20.17;84.36
19759;BME280;10038;42.662;23.278;2022-07-01T01:55:47;72883.66;;;19.84;86.31
19759;BME280;10038;42.662;23.278;2022-07-01T01:58:14;72876.25;;;19.80;86.00
19759;BME280;10038;42.662;23.278;2022-07-01T02:00:41;72885.09;;;19.81;86.12
19759;BME280;10038;42.662;23.278;2022-07-01T02:03:08;72896.91;;;19.93;86.02
19759;BME280;10038;42.662;23.278;2022-07-01T02:05:35;72887.91;;;19.90;86.65
19759;BME280;10038;42.662;23.278;2022-07-01T02:08:02;72876.66;;;19.78;86.46
19759;BME280;10038;42.662;23.278;2022-07-01T02:10:28;72844.50;;;19.48;86.23
19759;BME280;10038;42.662;23.278;2022-07-01T02:12:57;72873.03;;;19.73;86.66
19759;BME280;10038;42.662;23.278;2022-07-01T02:15:23;72887.91;;;19.90;86.28
19759;BME280;10038;42.662;23.278;2022-07-01T02:17:50;72894.88;;;19.96;86.15
19759;BME280;10038;42.662;23.278;2022-07-01T02:20:22;72879.00;;;19.80;86.08
19759;BME280;10038;42.662;23.278;2022-07-01T02:22:49;72834.34;;;19.44;87.46
19759;BME280;10038;42.662;23.278;2022-07-01T02:25:17;72835.19;;;19.40;87.78
19759;BME280;10038;42.662;23.278;2022-07-01T02:27:44;72843.75;;;19.45;87.57
19759;BME280;10038;42.662;23.278;2022-07-01T02:30:13;72849.59;;;19.50;87.81
19759;BME280;10038;42.662;23.278;2022-07-01T02:32:40;72847.16;;;19.55;86.92
19759;BME280;10038;42.662;23.278;2022-07-01T02:35:07;72843.66;;;19.52;87.99
19759;BME280;10038;42.662;23.278;2022-07-01T02:37:34;72847.41;;;19.51;87.93
19759;BME280;10038;42.662;23.278;2022-07-01T02:40:01;72835.19;;;19.40;88.52
19759;BME280;10038;42.662;23.278;2022-07-01T02:42:27;72818.88;;;19.26;88.54
19759;BME280;10038;42.662;23.278;2022-07-01T02:45:00;72816.56;;;19.24;89.12
19759;BME280;10038;42.662;23.278;2022-07-01T02:47:32;72819.22;;;19.31;88.89
19759;BME280;10038;42.662;23.278;2022-07-01T02:49:59;72804.94;;;19.14;89.58
19759;BME280;10038;42.662;23.278;2022-07-01T02:52:25;72807.25;;;19.16;89.12
19759;BME280;10038;42.662;23.278;2022-07-01T02:54:52;72769.16;;;18.88;89.16
19759;BME280;10038;42.662;23.278;2022-07-01T02:57:19;72827.88;;;19.29;88.75
19759;BME280;10038;42.662;23.278;2022-07-01T02:59:46;72823.13;;;19.32;88.45
19759;BME280;10038;42.662;23.278;2022-07-01T03:02:13;72824.72;;;19.31;88.76
19759;BME280;10038;42.662;23.278;2022-07-01T03:04:41;72827.38;;;19.38;88.53
19759;BME280;10038;42.662;23.278;2022-07-01T03:07:08;72834.34;;;19.44;88.23
19759;BME280;10038;42.662;23.278;2022-07-01T03:09:36;72833.63;;;19.41;88.49
19759;BME280;10038;42.662;23.278;2022-07-01T03:12:05;72806.06;;;19.15;89.48
19759;BME280;10038;42.662;23.278;2022-07-01T03:14:50;72805.66;;;19.17;89.68
19759;BME280;10038;42.662;23.278;2022-07-01T03:17:17;72828.03;;;19.31;89.00
19759;BME280;10038;42.662;23.278;2022-07-01T03:19:45;72809.16;;;19.20;88.84
19759;BME280;10038;42.662;23.278;2022-07-01T03:22:12;72802.03;;;19.11;89.76
19759;BME280;10038;42.662;23.278;2022-07-01T03:24:39;72821.22;;;19.28;89.52
19759;BME280;10038;42.662;23.278;2022-07-01T03:27:06;72829.03;;;19.30;88.32
19759;BME280;10038;42.662;23.278;2022-07-01T03:29:34;72826.03;;;19.34;88.20
19759;BME280;10038;42.662;23.278;2022-07-01T03:32:01;72832.88;;;19.38;89.06
19759;BME280;10038;42.662;23.278;2022-07-01T03:34:27;72852.22;;;19.57;88.15
19759;BME280;10038;42.662;23.278;2022-07-01T03:36:56;72864.44;;;19.68;87.19
19759;BME280;10038;42.662;23.278;2022-07-01T03:39:23;72869.28;;;19.74;86.95
19759;BME280;10038;42.662;23.278;2022-07-01T03:41:49;72869.69;;;19.72;86.94
19759;BME280;10038;42.662;23.278;2022-07-01T03:44:16;72881.34;;;19.82;86.69
19759;BME280;10038;42.662;23.278;2022-07-01T03:46:43;72883.22;;;19.86;87.07
19759;BME280;10038;42.662;23.278;2022-07-01T03:49:10;72870.13;;;19.70;88.46
19759;BME280;10038;42.662;23.278;2022-07-01T03:51:37;72876.56;;;19.85;87.79
19759;BME280;10038;42.662;23.278;2022-07-01T03:54:05;72896.03;;;19.97;86.57
19759;BME280;10038;42.662;23.278;2022-07-01T03:56:49;72912.94;;;20.12;85.85
19759;BME280;10038;42.662;23.278;2022-07-01T03:59:16;72941.75;;;20.32;84.61
19759;BME280;10038;42.662;23.278;2022-07-01T04:01:46;72922.81;;;20.21;84.31
19759;BME280;10038;42.662;23.278;2022-07-01T04:04:13;72966.50;;;20.58;83.46
19759;BME280;10038;42.662;23.278;2022-07-01T04:06:40;72982.25;;;20.72;82.08
19759;BME280;10038;42.662;23.278;2022-07-01T04:09:10;72973.34;;;20.62;82.12
19759;BME280;10038;42.662;23.278;2022-07-01T04:11:38;72983.81;;;20.71;82.02
19759;BME280;10038;42.662;23.278;2022-07-01T04:14:05;72984.88;;;20.79;81.28
19759;BME280;10038;42.662;23.278;2022-07-01T04:16:32;73002.91;;;20.85;81.28
19759;BME280;10038;42.662;23.278;2022-07-01T04:18:58;73017.47;;;20.98;80.87
19759;BME280;10038;42.662;23.278;2022-07-01T04:21:25;73020.69;;;21.05;80.53
19759;BME280;10038;42.662;23.278;2022-07-01T04:24:11;73045.16;;;21.27;79.66
19759;BME280;10038;42.662;23.278;2022-07-01T04:26:39;73052.16;;;21.33;79.40
19759;BME280;10038;42.662;23.278;2022-07-01T04:29:07;73070.81;;;21.49;78.71
19759;BME280;10038;42.662;23.278;2022-07-01T04:31:34;73088.31;;;21.64;78.63
19759;BME280;10038;42.662;23.278;2022-07-01T04:34:01;73107.66;;;21.73;78.77
19759;BME280;10038;42.662;23.278;2022-07-01T04:36:28;73122.13;;;21.93;77.49
19759;BME280;10038;42.662;23.278;2022-07-01T04:38:55;73129.72;;;22.00;76.70
19759;BME280;10038;42.662;23.278;2022-07-01T04:41:23;73138.75;;;22.12;76.12
19759;BME280;10038;42.662;23.278;2022-07-01T04:44:08;73173.28;;;22.35;75.74
19759;BME280;10038;42.662;23.278;2022-07-01T04:46:35;73169.09;;;22.39;74.64
19759;BME280;10038;42.662;23.278;2022-07-01T04:49:02;73192.09;;;22.54;74.42
19759;BME280;10038;42.662;23.278;2022-07-01T04:51:29;73202.91;;;22.68;72.72
19759;BME280;10038;42.662;23.278;2022-07-01T04:53:56;73217.78;;;22.76;72.83
19759;BME280;10038;42.662;23.278;2022-07-01T04:56:24;73234.13;;;22.90;72.98
19759;BME280;10038;42.662;23.278;2022-07-01T04:58:52;73236.75;;;22.97;72.45
19759;BME280;10038;42.662;23.278;2022-07-01T05:01:19;73254.53;;;23.08;71.85
19759;BME280;10038;42.662;23.278;2022-07-01T05:03:45;73278.47;;;23.28;71.28
19759;BME280;10038;42.662;23.278;2022-07-01T05:06:12;73289.28;;;23.42;70.66
19759;BME280;10038;42.662;23.278;2022-07-01T05:08:39;73326.34;;;23.70;69.03
19759;BME280;10038;42.662;23.278;2022-07-01T05:11:06;73312.91;;;23.58;69.58
19759;BME280;10038;42.662;23.278;2022-07-01T05:13:34;73322.81;;;23.67;69.63
19759;BME280;10038;42.662;23.278;2022-07-01T05:16:01;73316.69;;;23.66;69.49
19759;BME280;10038;42.662;23.278;2022-07-01T05:18:28;73348.50;;;23.89;68.57
19759;BME280;10038;42.662;23.278;2022-07-01T05:21:13;73340.63;;;23.87;68.86
19759;BME280;10038;42.662;23.278;2022-07-01T05:23:57;73391.00;;;24.23;68.33
19759;BME280;10038;42.662;23.278;2022-07-01T05:26:24;73401.06;;;24.34;67.89
19759;BME280;10038;42.662;23.278;2022-07-01T05:28:53;73425.31;;;24.60;66.20
19759;BME280;10038;42.662;23.278;2022-07-01T05:31:20;73434.66;;;24.68;66.35
19759;BME280;10038;42.662;23.278;2022-07-01T05:33:47;73471.19;;;24.95;64.46
19759;BME280;10038;42.662;23.278;2022-07-01T05:36:14;73480.53;;;25.03;63.60
19759;BME280;10038;42.662;23.278;2022-07-01T05:38:42;73456.28;;;24.87;64.33
19759;BME280;10038;42.662;23.278;2022-07-01T05:41:08;73501.41;;;25.28;64.07
19759;BME280;10038;42.662;23.278;2022-07-01T05:43:35;73537.81;;;25.52;64.11
19759;BME280;10038;42.662;23.278;2022-07-01T05:46:04;73569.22;;;25.77;61.35
19759;BME280;10038;42.662;23.278;2022-07-01T05:48:31;73576.09;;;25.90;60.63
19759;BME280;10038;42.662;23.278;2022-07-01T05:50:57;73618.19;;;26.26;60.45
19759;BME280;10038;42.662;23.278;2022-07-01T05:53:24;73644.25;;;26.44;59.19
19759;BME280;10038;42.662;23.278;2022-07-01T05:55:51;73654.00;;;26.60;59.51
19759;BME280;10038;42.662;23.278;2022-07-01T05:58:18;73654.00;;;26.60;60.34
19759;BME280;10038;42.662;23.278;2022-07-01T06:00:45;73688.97;;;26.87;58.06
19759;BME280;10038;42.662;23.278;2022-07-01T06:03:14;73717.06;;;27.12;56.69
19759;BME280;10038;42.662;23.278;2022-07-01T06:05:42;73691.31;;;26.89;56.78
19759;BME280;10038;42.662;23.278;2022-07-01T06:08:09;73757.59;;;27.49;56.63
19759;BME280;10038;42.662;23.278;2022-07-01T06:10:36;73715.91;;;27.11;56.44
19759;BME280;10038;42.662;23.278;2022-07-01T06:13:04;73758.75;;;27.50;55.30
19759;BME280;10038;42.662;23.278;2022-07-01T06:15:31;73773.25;;;27.60;55.34
19759;BME280;10038;42.662;23.278;2022-07-01T06:18:01;73784.69;;;27.65;54.98
19759;BME280;10038;42.662;23.278;2022-07-01T06:20:30;73810.97;;;27.97;54.30
19759;BME280;10038;42.662;23.278;2022-07-01T06:23:04;73840.88;;;28.23;52.76
19759;BME280;10038;42.662;23.278;2022-07-01T06:25:31;73892.28;;;28.65;51.87
19759;BME280;10038;42.662;23.278;2022-07-01T06:27:58;73865.31;;;28.42;51.99
19759;BME280;10038;42.662;23.278;2022-07-01T06:30:25;73891.53;;;28.62;52.34
19759;BME280;10038;42.662;23.278;2022-07-01T06:32:52;73902.94;;;28.77;50.46
19759;BME280;10038;42.662;23.278;2022-07-01T06:35:18;73939.13;;;29.05;50.45
19759;BME280;10038;42.662;23.278;2022-07-01T06:37:47;73960.81;;;29.24;49.75
19759;BME280;10038;42.662;23.278;2022-07-01T06:40:13;73975.59;;;29.39;49.48
19759;BME280;10038;42.662;23.278;2022-07-01T06:42:40;73949.09;;;29.14;49.05
19759;BME280;10038;42.662;23.278;2022-07-01T06:45:07;73950.97;;;29.18;49.06
19759;BME280;10038;42.662;23.278;2022-07-01T06:47:34;74004.88;;;29.64;48.70
19759;BME280;10038;42.662;23.278;2022-07-01T06:50:03;74007.25;;;29.66;49.04
19759;BME280;10038;42.662;23.278;2022-07-01T06:52:30;74088.00;;;30.33;47.61
19759;BME280;10038;42.662;23.278;2022-07-01T06:54:59;74116.16;;;30.58;46.69
19759;BME280;10038;42.662;23.278;2022-07-01T06:57:27;74070.41;;;30.18;47.15
19759;BME280;10038;42.662;23.278;2022-07-01T06:59:54;74082.84;;;30.31;46.54
19759;BME280;10038;42.662;23.278;2022-07-01T07:02:21;74123.78;;;30.64;45.97
19759;BME280;10038;42.662;23.278;2022-07-01T07:04:48;74166.63;;;31.01;45.69
19759;BME280;10038;42.662;23.278;2022-07-01T07:07:14;74202.50;;;31.34;44.92
19759;BME280;10038;42.662;23.278;2022-07-01T07:09:41;74170.72;;;31.05;45.41
19759;BME280;10038;42.662;23.278;2022-07-01T07:12:10;74221.31;;;31.50;44.67
19759;BME280;10038;42.662;23.278;2022-07-01T07:14:37;74280.91;;;31.97;45.59
19759;BME280;10038;42.662;23.278;2022-07-01T07:17:03;74301.00;;;32.17;44.47
19759;BME280;10038;42.662;23.278;2022-07-01T07:19:30;74320.34;;;32.33;42.97
19759;BME280;10038;42.662;23.278;2022-07-01T07:21:57;74367.59;;;32.79;41.64
19759;BME280;10038;42.662;23.278;2022-07-01T07:24:24;74358.69;;;32.68;41.90
19759;BME280;10038;42.662;23.278;2022-07-01T07:26:51;74350.44;;;32.61;42.64
19759;BME280;10038;42.662;23.278;2022-07-01T07:29:19;74370.88;;;32.77;41.87
19759;BME280;10038;42.662;23.278;2022-07-01T07:31:46;74395.06;;;33.00;41.10
19759;BME280;10038;42.662;23.278;2022-07-01T07:34:12;74302.28;;;32.20;42.53
19759;BME280;10038;42.662;23.278;2022-07-01T07:36:39;74345.75;;;32.57;42.59
19759;BME280;10038;42.662;23.278;2022-07-01T07:39:06;74363.38;;;32.73;43.39
19759;BME280;10038;42.662;23.278;2022-07-01T07:41:35;74410.34;;;33.13;42.14
19759;BME280;10038;42.662;23.278;2022-07-01T07:44:02;74393.31;;;32.98;41.80
19759;BME280;10038;42.662;23.278;2022-07-01T07:46:30;74462.06;;;33.57;40.98
19759;BME280;10038;42.662;23.278;2022-07-01T07:48:57;74508.47;;;33.97;39.20
19759;BME280;10038;42.662;23.278;2022-07-01T07:51:24;74520.34;;;34.10;40.21
19759;BME280;10038;42.662;23.278;2022-07-01T07:53:52;74545.50;;;34.29;39.25
19759;BME280;10038;42.662;23.278;2022-07-01T07:56:19;74533.16;;;34.18;39.43
19759;BME280;10038;42.662;23.278;2022-07-01T07:58:46;74591.38;;;34.68;39.19
19759;BME280;10038;42.662;23.278;2022-07-01T08:01:12;74556.78;;;34.41;38.15
19759;BME280;10038;42.662;23.278;2022-07-01T08:03:41;74571.34;;;34.51;38.51
19759;BME280;10038;42.662;23.278;2022-07-01T08:06:07;74610.16;;;34.84;38.72
19759;BME280;10038;42.662;23.278;2022-07-01T08:08:34;74570.19;;;34.50;37.33
19759;BME280;10038;42.662;23.278;2022-07-01T08:11:01;74574.28;;;34.54;38.54
19759;BME280;10038;42.662;23.278;2022-07-01T08:13:28;74605.13;;;34.85;38.73
19759;BME280;10038;42.662;23.278;2022-07-01T08:15:55;74589.72;;;34.69;38.64
19759;BME280;10038;42.662;23.278;2022-07-01T08:18:22;74586.78;;;34.67;37.20
19759;BME280;10038;42.662;23.278;2022-07-01T08:20:50;74594.91;;;34.71;37.88
19759;BME280;10038;42.662;23.278;2022-07-01T08:23:18;74656.06;;;35.24;35.80
19759;BME280;10038;42.662;23.278;2022-07-01T08:25:46;74636.06;;;35.07;36.74
19759;BME280;10038;42.662;23.278;2022-07-01T08:28:13;74617.22;;;34.90;36.80
19759;BME280;10038;42.662;23.278;2022-07-01T08:30:40;74650.19;;;35.19;36.37
19759;BME280;10038;42.662;23.278;2022-07-01T08:33:07;74676.63;;;35.41;36.79
19759;BME280;10038;42.662;23.278;2022-07-01T08:35:34;74731.44;;;35.91;35.59
19759;BME280;10038;42.662;23.278;2022-07-01T08:38:03;74783.22;;;36.35;35.67
19759;BME280;10038;42.662;23.278;2022-07-01T08:40:31;74757.25;;;36.10;33.27
19759;BME280;10038;42.662;23.278;2022-07-01T08:42:58;74810.22;;;36.56;34.05
19759;BME280;10038;42.662;23.278;2022-07-01T08:45:26;74767.84;;;36.20;34.73
19759;BME280;10038;42.662;23.278;2022-07-01T08:47:58;74740.28;;;35.98;34.13
19759;BME280;10038;42.662;23.278;2022-07-01T08:50:26;74745.47;;;36.00;34.04
19759;BME280;10038;42.662;23.278;2022-07-01T08:52:54;74694.41;;;35.59;34.84
19759;BME280;10038;42.662;23.278;2022-07-01T08:55:22;74703.81;;;35.67;36.18
19759;BME280;10038;42.662;23.278;2022-07-01T08:57:50;74727.22;;;35.85;34.60
19759;BME280;10038;42.662;23.278;2022-07-01T09:00:17;74785.47;;;36.35;35.39
19759;BME280;10038;42.662;23.278;2022-07-01T09:02:53;74788.53;;;36.40;33.88
19759;BME280;10038;42.662;23.278;2022-07-01T09:05:20;74878.72;;;37.19;34.22
19759;BME280;10038;42.662;23.278;2022-07-01T09:07:48;74892.13;;;37.29;33.36
19759;BME280;10038;42.662;23.278;2022-07-01T09:10:17;74841.50;;;36.85;32.06
19759;BME280;10038;42.662;23.278;2022-07-01T09:12:46;74751.94;;;36.06;32.73
19759;BME280;10038;42.662;23.278;2022-07-01T09:15:24;74778.88;;;36.27;32.88
19759;BME280;10038;42.662;23.278;2022-07-01T09:17:55;74790.19;;;36.39;32.79
19759;BME280;10038;42.662;23.278;2022-07-01T09:20:24;74808.56;;;36.57;31.94
19759;BME280;10038;42.662;23.278;2022-07-01T09:23:00;74835.63;;;36.80;32.62
19759;BME280;10038;42.662;23.278;2022-07-01T09:25:31;74850.22;;;36.90;31.41
19759;BME280;10038;42.662;23.278;2022-07-01T09:28:08;74800.31;;;36.50;31.98
19759;BME280;10038;42.662;23.278;2022-07-01T09:30:35;74809.63;;;36.55;32.37
19759;BME280;10038;42.662;23.278;2022-07-01T09:33:10;74876.13;;;37.12;32.06
19759;BME280;10038;42.662;23.278;2022-07-01T09:35:38;74829.75;;;36.75;31.68
19759;BME280;10038;42.662;23.278;2022-07-01T09:38:06;74909.69;;;37.41;32.64
19759;BME280;10038;42.662;23.278;2022-07-01T09:40:47;74933.38;;;37.64;31.71
19759;BME280;10038;42.662;23.278;2022-07-01T09:43:19;74886.75;;;37.21;30.30
19759;BME280;10038;42.662;23.278;2022-07-01T09:45:53;74911.00;;;37.45;32.33
19759;BME280;10038;42.662;23.278;2022-07-01T09:48:21;74975.78;;;38.00;30.55
19759;BME280;10038;42.662;23.278;2022-07-01T09:50:50;74972.25;;;37.97;30.56
19759;BME280;10038;42.662;23.278;2022-07-01T09:53:17;75042.94;;;38.58;28.84
19759;BME280;10038;42.662;23.278;2022-07-01T09:55:44;75001.00;;;38.19;29.41
19759;BME280;10038;42.662;23.278;2022-07-01T09:58:11;74978.81;;;38.05;27.98
19759;BME280;10038;42.662;23.278;2022-07-01T10:00:39;74968.81;;;37.97;27.65
19759;BME280;10038;42.662;23.278;2022-07-01T10:03:06;74974.50;;;37.97;25.42
19759;BME280;10038;42.662;23.278;2022-07-01T10:05:39;74912.19;;;37.46;26.32
19759;BME280;10038;42.662;23.278;2022-07-01T10:08:18;74981.06;;;38.05;27.11
19759;BME280;10038;42.662;23.278;2022-07-01T10:10:51;74993.34;;;38.13;28.62
19759;BME280;10038;42.662;23.278;2022-07-01T10:13:25;75020.56;;;38.38;27.30
19759;BME280;10038;42.662;23.278;2022-07-01T10:15:54;75072.41;;;38.83;27.73
19759;BME280;10038;42.662;23.278;2022-07-01T10:18:23;75048.34;;;38.65;27.28
19759;BME280;10038;42.662;23.278;2022-07-01T10:20:51;75086.56;;;38.95;28.54
19759;BME280;10038;42.662;23.278;2022-07-01T10:23:20;75024.19;;;38.44;26.58
19759;BME280;10038;42.662;23.278;2022-07-01T10:25:48;75050.59;;;38.64;27.42
19759;BME280;10038;42.662;23.278;2022-07-01T10:28:24;75087.03;;;38.93;29.02
19759;BME280;10038;42.662;23.278;2022-07-01T10:31:03;75005.72;;;38.23;25.45
19759;BME280;10038;42.662;23.278;2022-07-01T10:33:35;74953.50;;;37.83;24.38
19759;BME280;10038;42.662;23.278;2022-07-01T10:36:09;74955.16;;;37.83;25.25
19759;BME280;10038;42.662;23.278;2022-07-01T10:39:14;74992.28;;;38.14;25.17
19759;BME280;10038;42.662;23.278;2022-07-01T10:42:08;75012.91;;;38.32;24.30
19759;BME280;10038;42.662;23.278;2022-07-01T10:44:35;75080.66;;;38.90;22.68
19759;BME280;10038;42.662;23.278;2022-07-01T10:47:05;75009.94;;;38.29;24.22
19759;BME280;10038;42.662;23.278;2022-07-01T10:49:55;74935.63;;;37.63;24.02
19759;BME280;10038;42.662;23.278;2022-07-01T10:52:24;74927.97;;;37.57;22.76
19759;BME280;10038;42.662;23.278;2022-07-01T10:54:53;74945.72;;;37.74;22.64
19759;BME280;10038;42.662;23.278;2022-07-01T10:57:39;74995.22;;;38.17;22.22
19759;BME280;10038;42.662;23.278;2022-07-01T11:00:32;74994.03;;;38.16;23.34
19759;BME280;10038;42.662;23.278;2022-07-01T11:03:16;74994.50;;;38.14;22.61
19759;BME280;10038;42.662;23.278;2022-07-01T11:05:47;74879.19;;;37.17;21.80
19759;BME280;10038;42.662;23.278;2022-07-01T11:08:14;74880.84;;;37.16;21.67
19759;BME280;10038;42.662;23.278;2022-07-01T11:10:41;74889.09;;;37.23;21.77
19759;BME280;10038;42.662;23.278;2022-07-01T11:13:12;74896.84;;;37.33;21.78
19759;BME280;10038;42.662;23.278;2022-07-01T11:15:39;74890.28;;;37.24;21.13
19759;BME280;10038;42.662;23.278;2022-07-01T11:18:08;74884.25;;;37.17;21.38
19759;BME280;10038;42.662;23.278;2022-07-01T11:20:35;74946.31;;;37.75;21.45
19759;BME280;10038;42.662;23.278;2022-07-01T11:23:02;74922.69;;;37.52;21.87
19759;BME280;10038;42.662;23.278;2022-07-01T11:25:29;74836.31;;;36.83;22.44
19759;BME280;10038;42.662;23.278;2022-07-01T11:27:57;74903.22;;;37.36;22.28
19759;BME280;10038;42.662;23.278;2022-07-01T11:30:24;74935.03;;;37.63;22.79
19759;BME280;10038;42.662;23.278;2022-07-01T11:32:52;74938.09;;;37.68;21.31
19759;BME280;10038;42.662;23.278;2022-07-01T11:35:22;74904.97;;;37.37;21.83
19759;BME280;10038;42.662;23.278;2022-07-01T11:38:08;74867.91;;;37.05;22.68
19759;BME280;10038;42.662;23.278;2022-07-01T11:40:53;74713.69;;;35.73;24.44
19759;BME280;10038;42.662;23.278;2022-07-01T11:43:22;74708.41;;;35.69;24.52
19759;BME280;10038;42.662;23.278;2022-07-01T11:45:50;74738.41;;;35.94;24.89
19759;BME280;10038;42.662;23.278;2022-07-01T11:48:36;74742.63;;;36.00;25.48
19759;BME280;10038;42.662;23.278;2022-07-01T11:51:12;74813.03;;;36.56;23.86
19759;BME280;10038;42.662;23.278;2022-07-01T11:53:41;74887.34;;;37.22;24.80
19759;BME280;10038;42.662;23.278;2022-07-01T11:56:08;74911.47;;;37.43;23.72
19759;BME280;10038;42.662;23.278;2022-07-01T11:58:47;74883.22;;;37.18;23.27
19759;BME280;10038;42.662;23.278;2022-07-01T12:01:24;74844.94;;;36.86;23.88
19759;BME280;10038;42.662;23.278;2022-07-01T12:03:52;74862.00;;;37.00;24.36
19759;BME280;10038;42.662;23.278;2022-07-01T12:06:21;74958.56;;;37.83;23.31
19759;BME280;10038;42.662;23.278;2022-07-01T12:08:50;74942.09;;;37.69;22.04
19759;BME280;10038;42.662;23.278;2022-07-01T12:11:19;74921.50;;;37.51;19.67
19759;BME280;10038;42.662;23.278;2022-07-01T12:13:48;74922.78;;;37.55;21.28
19759;BME280;10038;42.662;23.278;2022-07-01T12:16:15;74949.16;;;37.75;21.92
19759;BME280;10038;42.662;23.278;2022-07-01T12:18:52;74898.63;;;37.34;24.40
19759;BME280;10038;42.662;23.278;2022-07-01T12:21:20;74940.91;;;37.68;22.79
19759;BME280;10038;42.662;23.278;2022-07-01T12:24:08;74976.28;;;37.98;21.89
19759;BME280;10038;42.662;23.278;2022-07-01T12:26:46;74986.88;;;38.07;23.03
19759;BME280;10038;42.662;23.278;2022-07-01T12:29:13;74956.91;;;37.84;22.30
19759;BME280;10038;42.662;23.278;2022-07-01T12:31:40;74915.00;;;37.46;21.77
19759;BME280;10038;42.662;23.278;2022-07-01T12:34:07;74856.09;;;36.95;21.33
19759;BME280;10038;42.662;23.278;2022-07-01T12:36:35;74783.59;;;36.31;21.73
19759;BME280;10038;42.662;23.278;2022-07-01T12:39:04;74749.00;;;36.03;22.65
19759;BME280;10038;42.662;23.278;2022-07-01T12:41:32;74696.63;;;35.59;22.67
19759;BME280;10038;42.662;23.278;2022-07-01T12:44:00;74711.94;;;35.72;22.75
19759;BME280;10038;42.662;23.278;2022-07-01T12:46:28;74794.31;;;36.42;21.90
19759;BME280;10038;42.662;23.278;2022-07-01T12:48:55;74919.72;;;37.50;22.21
19759;BME280;10038;42.662;23.278;2022-07-01T12:51:28;74975.78;;;38.00;22.16
19759;BME280;10038;42.662;23.278;2022-07-01T12:53:56;74948.00;;;37.74;22.69
19759;BME280;10038;42.662;23.278;2022-07-01T12:56:25;74896.16;;;37.30;22.40
19759;BME280;10038;42.662;23.278;2022-07-01T12:58:53;74829.63;;;36.73;23.37